createdAt,value
2023-02-22T00:00:43.160Z,93.47
2023-02-22T00:03:27.795Z,93.35
2023-02-22T00:06:02.513Z,93.27
2023-02-22T00:08:30.937Z,92.72
2023-02-22T00:10:58.261Z,92.14
2023-02-22T00:13:25.289Z,92.20
2023-02-22T00:15:51.652Z,93.18
2023-02-22T00:18:19.173Z,92.25
2023-02-22T00:20:45.862Z,92.54
2023-02-22T00:23:21.626Z,92.10
2023-02-22T00:25:50.315Z,91.91
2023-02-22T00:28:18.025Z,92.74
2023-02-22T00:30:44.921Z,91.92
2023-02-22T00:33:14.278Z,92.11
2023-02-22T00:35:41.496Z,91.54
2023-02-22T00:38:08.344Z,91.53
2023-02-22T00:40:35.738Z,91.63
2023-02-22T00:43:05.137Z,91.91
2023-02-22T00:45:33.656Z,91.38
2023-02-22T00:48:02.117Z,90.97
2023-02-22T00:50:31.007Z,91.15
2023-02-22T00:52:59.647Z,91.32
2023-02-22T00:55:28.606Z,92.07
2023-02-22T00:57:55.777Z,91.24
2023-02-22T01:00:28.061Z,91.60
2023-02-22T01:02:56.819Z,91.57
2023-02-22T01:05:27.789Z,91.20
2023-02-22T01:07:56.162Z,91.41
2023-02-22T01:10:24.858Z,91.28
2023-02-22T01:12:52.580Z,91.65
2023-02-22T01:15:23.966Z,92.17
2023-02-22T01:17:53.413Z,91.57
2023-02-22T01:20:22.715Z,91.13
2023-02-22T01:22:50.955Z,91.25
2023-02-22T01:25:20.301Z,91.31
2023-02-22T01:27:51.117Z,91.61
2023-02-22T01:30:21.927Z,91.47
2023-02-22T01:32:48.835Z,92.30
2023-02-22T01:35:23.993Z,91.28
2023-02-22T01:37:50.601Z,92.15
2023-02-22T01:40:24.706Z,91.52
2023-02-22T01:42:52.720Z,91.98
2023-02-22T01:45:32.512Z,91.66
2023-02-22T01:48:20.168Z,91.15
2023-02-22T01:51:09.048Z,91.43
2023-02-22T01:53:39.903Z,91.76
2023-02-22T01:56:07.128Z,92.49
2023-02-22T01:58:37.260Z,91.62
2023-02-22T02:01:03.828Z,92.03
2023-02-22T02:03:34.844Z,91.91
2023-02-22T02:06:04.364Z,91.93
2023-02-22T02:08:47.370Z,91.74
2023-02-22T02:11:13.864Z,92.49
2023-02-22T02:13:40.266Z,92.84
2023-02-22T02:16:06.861Z,92.58
2023-02-22T02:18:33.309Z,92.59
2023-02-22T02:21:35.490Z,92.46
2023-02-22T02:24:23.143Z,92.63
2023-02-22T02:27:11.300Z,92.98
2023-02-22T02:30:02.279Z,92.74
2023-02-22T02:32:47.404Z,92.98
2023-02-22T02:35:28.816Z,92.50
2023-02-22T02:38:03.188Z,92.80
2023-02-22T02:40:47.548Z,93.02
2023-02-22T02:43:17.539Z,92.56
2023-02-22T02:45:46.860Z,92.61
2023-02-22T02:48:18.036Z,92.98
2023-02-22T02:50:47.905Z,92.84
2023-02-22T02:53:22.106Z,93.07
2023-02-22T02:55:49.561Z,92.97
2023-02-22T02:58:23.221Z,93.22
2023-02-22T03:00:53.435Z,92.92
2023-02-22T03:03:41.405Z,92.57
2023-02-22T03:06:35.753Z,92.75
2023-02-22T03:09:21.467Z,92.21
2023-02-22T03:12:03.828Z,92.48
2023-02-22T03:15:02.900Z,92.89
2023-02-22T03:17:47.613Z,92.56
2023-02-22T03:20:43.072Z,92.22
2023-02-22T03:23:28.586Z,93.32
2023-02-22T03:26:03.307Z,92.63
2023-02-22T03:28:33.283Z,93.07
2023-02-22T03:31:10.721Z,92.58
2023-02-22T03:33:44.072Z,93.69
2023-02-22T03:36:20.356Z,92.68
2023-02-22T03:38:49.143Z,93.32
2023-02-22T03:41:19.476Z,93.10
2023-02-22T03:43:54.481Z,93.12
2023-02-22T03:46:22.129Z,92.93
2023-02-22T03:48:57.534Z,92.64
2023-02-22T03:51:24.704Z,93.01
2023-02-22T03:53:56.888Z,93.48
2023-02-22T03:56:36.181Z,92.74
2023-02-22T03:59:08.948Z,93.40
2023-02-22T04:01:36.017Z,92.92
2023-02-22T04:04:02.941Z,92.28
2023-02-22T04:06:29.781Z,93.45
2023-02-22T04:08:56.808Z,92.50
2023-02-22T04:11:23.434Z,92.79
2023-02-22T04:13:49.993Z,92.87
2023-02-22T04:16:16.569Z,92.94
2023-02-22T04:18:43.595Z,92.68
2023-02-22T04:21:11.564Z,93.08
2023-02-22T04:23:44.379Z,93.73
2023-02-22T04:26:11.703Z,92.73
2023-02-22T04:28:38.501Z,92.74
2023-02-22T04:31:09.701Z,93.65
2023-02-22T04:33:36.089Z,93.32
2023-02-22T04:36:02.545Z,92.49
2023-02-22T04:38:32.269Z,92.88
2023-02-22T04:40:59.634Z,92.82
2023-02-22T04:43:26.962Z,93.10
2023-02-22T04:46:00.158Z,92.99
2023-02-22T04:48:28.445Z,92.30
2023-02-22T04:50:54.873Z,93.59
2023-02-22T04:53:21.935Z,92.46
2023-02-22T04:55:48.305Z,93.57
2023-02-22T04:58:14.673Z,93.57
2023-02-22T05:00:41.082Z,93.70
2023-02-22T05:03:07.577Z,93.40
2023-02-22T05:05:33.945Z,92.71
2023-02-22T05:08:00.348Z,93.29
2023-02-22T05:10:26.898Z,93.19
2023-02-22T05:12:53.347Z,93.34
2023-02-22T05:15:21.673Z,93.60
2023-02-22T05:17:48.053Z,93.80
2023-02-22T05:20:24.164Z,93.54
2023-02-22T05:22:51.912Z,93.22
2023-02-22T05:25:20.273Z,93.63
2023-02-22T05:27:51.828Z,93.36
2023-02-22T05:30:20.030Z,93.95
2023-02-22T05:32:47.170Z,93.23
2023-02-22T05:35:13.613Z,93.28
2023-02-22T05:37:39.986Z,93.26
2023-02-22T05:40:07.712Z,93.58
2023-02-22T05:42:34.126Z,92.50
2023-02-22T05:45:00.480Z,93.94
2023-02-22T05:47:28.520Z,93.38
2023-02-22T05:49:54.900Z,93.08
2023-02-22T05:52:21.499Z,93.18
2023-02-22T05:54:47.921Z,93.44
2023-02-22T05:57:14.418Z,93.78
2023-02-22T05:59:40.821Z,94.17
2023-02-22T06:02:07.214Z,94.61
2023-02-22T06:04:33.641Z,93.15
2023-02-22T06:07:00.108Z,93.45
2023-02-22T06:09:28.210Z,93.43
2023-02-22T06:11:55.157Z,93.65
2023-02-22T06:14:21.661Z,93.76
2023-02-22T06:16:55.631Z,93.88
2023-02-22T06:19:22.560Z,92.81
2023-02-22T06:21:53.687Z,93.64
2023-02-22T06:24:20.743Z,93.22
2023-02-22T06:26:47.439Z,93.73
2023-02-22T06:29:14.492Z,93.91
2023-02-22T06:31:40.998Z,93.92
2023-02-22T06:34:07.466Z,94.11
2023-02-22T06:36:33.917Z,93.74
2023-02-22T06:39:00.405Z,93.78
2023-02-22T06:41:26.770Z,93.45
2023-02-22T06:43:53.152Z,94.04
2023-02-22T06:46:21.028Z,93.88
2023-02-22T06:48:47.382Z,93.68
2023-02-22T06:51:13.791Z,94.16
2023-02-22T06:53:40.141Z,94.90
2023-02-22T06:56:06.921Z,94.00
2023-02-22T06:58:33.282Z,94.22
2023-02-22T07:01:02.275Z,94.62
2023-02-22T07:03:28.727Z,95.09
2023-02-22T07:05:55.345Z,94.56
2023-02-22T07:08:21.723Z,94.23
2023-02-22T07:10:50.372Z,94.75
2023-02-22T07:13:16.728Z,95.23
2023-02-22T07:15:43.061Z,94.08
2023-02-22T07:18:09.444Z,94.15
2023-02-22T07:20:36.208Z,94.97
2023-02-22T07:23:02.608Z,95.48
2023-02-22T07:25:29.117Z,95.59
2023-02-22T07:27:55.582Z,95.05
2023-02-22T07:30:30.461Z,95.43
2023-02-22T07:32:58.781Z,95.21
2023-02-22T07:35:30.644Z,95.05
2023-02-22T07:37:57.537Z,94.97
2023-02-22T07:40:25.918Z,95.64
2023-02-22T07:43:08.938Z,94.46
2023-02-22T07:45:35.936Z,94.65
2023-02-22T07:48:04.423Z,94.37
2023-02-22T07:50:32.667Z,94.03
2023-02-22T07:53:03.174Z,93.79
2023-02-22T07:55:31.279Z,94.67
2023-02-22T07:58:00.847Z,94.69
2023-02-22T08:00:33.548Z,94.74
2023-02-22T08:03:01.587Z,93.93
2023-02-22T08:05:30.920Z,94.62
2023-02-22T08:07:57.725Z,94.15
2023-02-22T08:10:25.557Z,93.64
2023-02-22T08:12:53.066Z,93.83
2023-02-22T08:15:24.595Z,94.23
2023-02-22T08:17:51.535Z,94.17
2023-02-22T08:20:17.987Z,94.09
2023-02-22T08:22:44.427Z,93.45
2023-02-22T08:25:11.720Z,92.78
2023-02-22T08:27:38.561Z,93.38
2023-02-22T08:30:06.180Z,93.40
2023-02-22T08:32:32.824Z,92.96
2023-02-22T08:34:59.215Z,93.36
2023-02-22T08:37:25.569Z,93.23
2023-02-22T08:39:53.281Z,93.50
2023-02-22T08:42:19.662Z,92.61
2023-02-22T08:44:46.111Z,93.35
2023-02-22T08:47:12.528Z,93.38
2023-02-22T08:49:38.896Z,93.23
2023-02-22T08:52:05.419Z,92.50
2023-02-22T08:54:31.965Z,92.07
2023-02-22T08:56:58.302Z,92.54
2023-02-22T08:59:24.710Z,92.37
2023-02-22T09:01:51.107Z,92.19
2023-02-22T09:04:17.503Z,91.21
2023-02-22T09:06:48.199Z,90.76
2023-02-22T09:09:14.604Z,91.15
2023-02-22T09:11:40.962Z,90.98
2023-02-22T09:14:07.365Z,90.91
2023-02-22T09:16:33.830Z,91.22
2023-02-22T09:19:00.266Z,89.96
2023-02-22T09:21:29.559Z,89.94
2023-02-22T09:24:08.098Z,89.75
2023-02-22T09:26:39.376Z,89.45
2023-02-22T09:29:12.242Z,91.22
2023-02-22T09:31:40.463Z,91.66
2023-02-22T09:34:13.936Z,91.59
2023-02-22T09:36:43.871Z,92.12
2023-02-22T09:39:11.261Z,92.08
2023-02-22T09:41:49.918Z,91.46
2023-02-22T09:44:48.581Z,91.00
2023-02-22T09:47:34.615Z,90.42
2023-02-22T09:50:15.782Z,90.40
2023-02-22T09:53:04.180Z,91.40
2023-02-22T09:55:37.514Z,89.54
2023-02-22T09:58:15.007Z,90.08
2023-02-22T10:00:43.670Z,90.33
2023-02-22T10:03:21.583Z,90.42
2023-02-22T10:05:56.830Z,90.78
2023-02-22T10:08:31.165Z,91.57
2023-02-22T10:11:17.323Z,90.79
2023-02-22T10:13:54.204Z,91.29
2023-02-22T10:16:26.889Z,90.43
2023-02-22T10:19:24.637Z,89.84
2023-02-22T10:22:18.968Z,90.49
2023-02-22T10:24:59.972Z,89.27
2023-02-22T10:27:53.048Z,89.79
2023-02-22T10:30:32.661Z,88.91
2023-02-22T10:33:10.838Z,89.34
2023-02-22T10:35:41.055Z,88.11
2023-02-22T10:38:24.294Z,89.22
2023-02-22T10:40:56.404Z,86.44
2023-02-22T10:43:23.513Z,83.21
2023-02-22T10:45:55.178Z,83.82
2023-02-22T10:48:24.708Z,85.08
2023-02-22T10:50:54.784Z,84.06
2023-02-22T10:53:21.332Z,84.19
2023-02-22T10:56:12.993Z,82.36
2023-02-22T10:58:55.056Z,82.55
2023-02-22T11:01:31.761Z,79.68
2023-02-22T11:04:01.308Z,75.81
2023-02-22T11:06:28.555Z,73.19
2023-02-22T11:09:10.601Z,70.13
2023-02-22T11:11:39.640Z,68.83
2023-02-22T11:14:06.812Z,68.18
2023-02-22T11:16:38.085Z,66.99
2023-02-22T11:19:25.531Z,67.44
2023-02-22T11:21:56.200Z,64.55
2023-02-22T11:24:30.382Z,62.31
2023-02-22T11:27:10.329Z,61.49
2023-02-22T11:29:38.125Z,60.57
2023-02-22T11:32:14.892Z,57.87
2023-02-22T11:34:45.198Z,54.65
2023-02-22T11:37:33.353Z,50.63
2023-02-22T11:40:13.547Z,50.08
2023-02-22T11:42:39.912Z,47.80
2023-02-22T11:45:13.952Z,48.33
2023-02-22T11:47:47.824Z,46.00
2023-02-22T11:50:25.598Z,43.79
2023-02-22T11:53:21.904Z,44.11
2023-02-22T11:55:55.851Z,44.03
2023-02-22T11:58:41.723Z,45.63
2023-02-22T12:01:26.746Z,43.43
2023-02-22T12:04:18.099Z,43.72
2023-02-22T12:07:23.030Z,46.59
2023-02-22T12:10:08.949Z,47.74
2023-02-22T12:12:42.804Z,49.52
2023-02-22T12:15:24.042Z,50.87
2023-02-22T12:18:05.097Z,51.33
2023-02-22T12:20:40.676Z,54.59
2023-02-22T12:23:19.437Z,56.31
2023-02-22T12:26:07.547Z,57.28
2023-02-22T12:28:43.596Z,58.95
2023-02-22T12:31:33.700Z,59.11
2023-02-22T12:34:11.815Z,59.77
2023-02-22T12:36:46.708Z,58.59
2023-02-22T12:39:28.439Z,59.57
2023-02-22T12:41:56.883Z,60.21
2023-02-22T12:44:33.308Z,60.18
2023-02-22T12:47:01.406Z,60.22
2023-02-22T12:49:38.622Z,60.65
2023-02-22T12:52:21.991Z,60.93
2023-02-22T12:54:56.431Z,60.85
2023-02-22T12:57:44.799Z,61.98
2023-02-22T13:00:22.977Z,61.70
2023-02-22T13:03:18.892Z,61.75
2023-02-22T13:05:52.752Z,62.21
2023-02-22T13:08:58.308Z,62.47
2023-02-22T13:11:48.832Z,63.28
2023-02-22T13:14:49.654Z,63.26
2023-02-22T13:17:24.737Z,64.16
2023-02-22T13:20:12.439Z,62.59
2023-02-22T13:22:47.886Z,63.49
2023-02-22T13:25:36.784Z,63.23
2023-02-22T13:28:23.740Z,64.23
2023-02-22T13:31:21.164Z,64.39
2023-02-22T13:34:01.663Z,63.84
2023-02-22T13:36:52.316Z,63.54
2023-02-22T13:39:45.940Z,64.71
2023-02-22T13:42:30.618Z,64.10
2023-02-22T13:45:07.813Z,64.47
2023-02-22T13:47:46.352Z,65.23
2023-02-22T13:50:39.839Z,63.92
2023-02-22T13:53:14.372Z,64.44
2023-02-22T13:55:43.437Z,64.14
2023-02-22T13:58:12.204Z,64.79
2023-02-22T14:00:52.061Z,64.97
2023-02-22T14:03:21.446Z,66.04
2023-02-22T14:05:51.189Z,64.85
2023-02-22T14:08:18.549Z,65.10
2023-02-22T14:10:47.641Z,66.72
2023-02-22T14:13:17.113Z,67.00
2023-02-22T14:16:04.926Z,67.51
2023-02-22T14:18:38.485Z,68.22
2023-02-22T14:21:15.674Z,68.89
2023-02-22T14:23:44.206Z,69.02
2023-02-22T14:26:31.941Z,68.28
2023-02-22T14:29:10.315Z,69.18
2023-02-22T14:31:46.473Z,69.76
2023-02-22T14:34:22.165Z,70.57
2023-02-22T14:37:17.650Z,70.71
2023-02-22T14:39:51.008Z,70.78
2023-02-22T14:42:39.747Z,71.40
2023-02-22T14:45:12.741Z,71.94
2023-02-22T14:48:01.000Z,71.29
2023-02-22T14:51:02.014Z,71.03
2023-02-22T14:53:43.940Z,71.30
2023-02-22T14:56:24.527Z,71.57
2023-02-22T14:58:57.275Z,71.60
2023-02-22T15:01:47.369Z,71.96
2023-02-22T15:04:22.381Z,72.00
2023-02-22T15:06:50.017Z,72.69
2023-02-22T15:09:29.268Z,73.13
2023-02-22T15:12:02.282Z,73.11
2023-02-22T15:14:32.285Z,73.41
2023-02-22T15:17:02.711Z,73.62
2023-02-22T15:19:31.905Z,73.65
2023-02-22T15:22:00.804Z,73.59
2023-02-22T15:24:30.484Z,74.16
2023-02-22T15:27:06.753Z,74.09
2023-02-22T15:29:37.590Z,74.32
2023-02-22T15:32:19.062Z,74.47
2023-02-22T15:34:45.603Z,74.41
2023-02-22T15:37:25.104Z,74.56
2023-02-22T15:39:59.157Z,74.72
2023-02-22T15:42:29.411Z,75.07
2023-02-22T15:44:56.480Z,75.36
2023-02-22T15:47:25.367Z,75.28
2023-02-22T15:50:20.965Z,75.32
2023-02-22T15:53:08.900Z,75.17
2023-02-22T15:55:41.315Z,75.61
2023-02-22T15:58:23.807Z,75.93
2023-02-22T16:01:13.977Z,76.27
2023-02-22T16:03:51.252Z,76.12
2023-02-22T16:06:30.348Z,76.50
2023-02-22T16:08:59.309Z,76.59
2023-02-22T16:11:35.181Z,76.62
2023-02-22T16:14:05.468Z,76.60
2023-02-22T16:16:35.276Z,76.92
2023-02-22T16:19:28.736Z,77.15
2023-02-22T16:22:03.075Z,77.15
2023-02-22T16:24:33.058Z,77.12
2023-02-22T16:27:24.626Z,77.29
2023-02-22T16:30:24.886Z,77.12
2023-02-22T16:32:54.785Z,77.34
2023-02-22T16:35:21.819Z,77.35
2023-02-22T16:37:54.915Z,77.64
2023-02-22T16:40:32.157Z,77.99
2023-02-22T16:43:09.745Z,78.04
2023-02-22T16:45:36.217Z,77.98
2023-02-22T16:48:14.566Z,77.67
2023-02-22T16:50:41.044Z,77.61
2023-02-22T16:53:07.402Z,77.95
2023-02-22T16:55:36.498Z,78.88
2023-02-22T16:58:04.664Z,78.82
2023-02-22T17:00:31.655Z,78.93
2023-02-22T17:02:59.856Z,78.76
2023-02-22T17:05:26.367Z,78.33
2023-02-22T17:07:52.959Z,79.09
2023-02-22T17:10:19.619Z,78.92
2023-02-22T17:12:49.672Z,78.55
2023-02-22T17:15:22.368Z,78.46
2023-02-22T17:17:50.438Z,79.19
2023-02-22T17:20:29.792Z,79.11
2023-02-22T17:22:58.752Z,79.13
2023-02-22T17:25:30.580Z,79.29
2023-02-22T17:27:57.011Z,79.23
2023-02-22T17:30:24.113Z,79.29
2023-02-22T17:32:51.644Z,79.23
2023-02-22T17:35:20.089Z,79.14
2023-02-22T17:37:47.599Z,79.58
2023-02-22T17:40:18.158Z,79.59
2023-02-22T17:42:45.731Z,79.57
2023-02-22T17:45:13.989Z,79.14
2023-02-22T17:47:44.054Z,79.33
2023-02-22T17:50:11.678Z,79.51
2023-02-22T17:52:38.331Z,79.99
2023-02-22T17:55:06.404Z,80.17
2023-02-22T17:57:32.907Z,79.67
2023-02-22T18:00:00.630Z,79.70
2023-02-22T18:02:27.583Z,80.63
2023-02-22T18:04:53.979Z,80.05
2023-02-22T18:07:20.391Z,80.52
2023-02-22T18:09:46.985Z,80.87
2023-02-22T18:12:13.542Z,80.53
2023-02-22T18:14:40.559Z,80.53
2023-02-22T18:17:07.877Z,80.55
2023-02-22T18:19:34.270Z,80.83
2023-02-22T18:22:02.895Z,80.56
2023-02-22T18:24:34.506Z,80.60
2023-02-22T18:27:02.257Z,80.76
2023-02-22T18:29:28.934Z,80.99
2023-02-22T18:31:56.267Z,81.23
2023-02-22T18:34:25.752Z,81.10
2023-02-22T18:36:52.248Z,81.15
2023-02-22T18:39:18.608Z,81.18
2023-02-22T18:41:48.836Z,81.44
2023-02-22T18:44:15.972Z,81.61
2023-02-22T18:46:43.563Z,81.38
2023-02-22T18:49:12.920Z,82.02
2023-02-22T18:51:43.249Z,81.79
2023-02-22T18:54:12.245Z,81.58
2023-02-22T18:56:40.190Z,81.92
2023-02-22T18:59:11.932Z,81.92
2023-02-22T19:01:40.643Z,82.32
2023-02-22T19:04:18.593Z,82.09
2023-02-22T19:06:48.176Z,81.88
2023-02-22T19:09:16.124Z,81.86
2023-02-22T19:11:45.115Z,81.73
2023-02-22T19:14:11.501Z,82.37
2023-02-22T19:16:38.729Z,81.76
2023-02-22T19:19:05.498Z,81.86
2023-02-22T19:21:32.718Z,82.28
2023-02-22T19:24:02.268Z,82.38
2023-02-22T19:26:29.466Z,82.63
2023-02-22T19:28:58.454Z,82.62
2023-02-22T19:31:31.068Z,82.08
2023-02-22T19:34:01.435Z,82.47
2023-02-22T19:36:28.923Z,82.49
2023-02-22T19:38:55.319Z,82.30
2023-02-22T19:41:23.005Z,82.47
2023-02-22T19:43:51.926Z,82.85
2023-02-22T19:46:21.110Z,83.03
2023-02-22T19:48:49.156Z,83.01
2023-02-22T19:51:17.611Z,82.91
2023-02-22T19:53:44.902Z,81.96
2023-02-22T19:56:15.960Z,82.84
2023-02-22T19:58:44.567Z,82.85
2023-02-22T20:01:23.361Z,83.03
2023-02-22T20:03:59.654Z,83.08
2023-02-22T20:06:31.713Z,82.67
2023-02-22T20:08:58.143Z,83.37
2023-02-22T20:11:29.631Z,82.85
2023-02-22T20:14:00.669Z,83.06
2023-02-22T20:16:28.459Z,83.14
2023-02-22T20:18:55.922Z,83.38
2023-02-22T20:21:33.270Z,83.27
2023-02-22T20:24:01.608Z,83.20
2023-02-22T20:26:30.361Z,83.36
2023-02-22T20:28:58.129Z,83.11
2023-02-22T20:31:25.104Z,83.05
2023-02-22T20:33:56.456Z,83.11
2023-02-22T20:36:23.235Z,83.37
2023-02-22T20:38:54.191Z,82.66
2023-02-22T20:41:29.989Z,82.62
2023-02-22T20:44:01.196Z,83.11
2023-02-22T20:46:31.427Z,82.99
2023-02-22T20:49:00.288Z,82.50
2023-02-22T20:51:27.816Z,82.72
2023-02-22T20:53:54.596Z,83.57
2023-02-22T20:56:24.054Z,82.86
2023-02-22T20:58:50.682Z,82.52
2023-02-22T21:01:19.462Z,83.34
2023-02-22T21:03:46.554Z,83.75
2023-02-22T21:06:18.278Z,82.73
2023-02-22T21:08:49.216Z,82.94
2023-02-22T21:11:17.969Z,82.51
2023-02-22T21:13:44.585Z,82.73
2023-02-22T21:16:27.643Z,82.64
2023-02-22T21:18:58.504Z,83.14
2023-02-22T21:21:26.185Z,82.46
2023-02-22T21:23:54.871Z,83.48
2023-02-22T21:26:23.667Z,83.03
2023-02-22T21:29:00.385Z,82.68
2023-02-22T21:31:31.604Z,82.75
2023-02-22T21:33:59.311Z,82.60
2023-02-22T21:36:26.436Z,83.09
2023-02-22T21:38:55.278Z,83.04
2023-02-22T21:41:24.224Z,82.48
2023-02-22T21:43:51.696Z,83.38
2023-02-22T21:46:18.731Z,82.31
2023-02-22T21:48:48.649Z,83.08
2023-02-22T21:51:25.211Z,82.84
2023-02-22T21:53:53.551Z,83.59
2023-02-22T21:56:29.105Z,83.34
2023-02-22T21:58:59.036Z,82.73
2023-02-22T22:01:32.565Z,82.68
2023-02-22T22:04:00.162Z,82.89
2023-02-22T22:06:29.404Z,83.04
2023-02-22T22:08:57.099Z,83.75
2023-02-22T22:11:25.177Z,83.24
2023-02-22T22:13:53.484Z,83.28
2023-02-22T22:16:20.440Z,82.68
2023-02-22T22:18:47.317Z,83.34
2023-02-22T22:21:20.602Z,83.60
2023-02-22T22:23:47.488Z,82.71
2023-02-22T22:26:17.087Z,83.64
2023-02-22T22:28:47.354Z,82.93
2023-02-22T22:31:16.025Z,82.87
2023-02-22T22:33:44.237Z,83.17
2023-02-22T22:36:13.266Z,83.11
2023-02-22T22:38:40.051Z,83.34
2023-02-22T22:41:08.350Z,83.21
2023-02-22T22:43:36.713Z,83.42
2023-02-22T22:46:05.277Z,83.13
2023-02-22T22:48:35.877Z,83.74
2023-02-22T22:51:06.490Z,82.97
2023-02-22T22:53:34.334Z,83.48
2023-02-22T22:56:19.123Z,83.17
2023-02-22T22:58:51.399Z,83.39
2023-02-22T23:01:26.554Z,83.90
2023-02-22T23:03:56.792Z,83.58
2023-02-22T23:06:30.723Z,83.17
2023-02-22T23:08:59.942Z,83.53
2023-02-22T23:11:29.351Z,83.85
2023-02-22T23:13:56.415Z,83.78
2023-02-22T23:16:24.341Z,83.70
2023-02-22T23:18:51.369Z,83.96
2023-02-22T23:21:19.929Z,83.82
2023-02-22T23:23:51.233Z,83.81
2023-02-22T23:26:20.268Z,83.38
2023-02-22T23:28:48.240Z,83.91
2023-02-22T23:31:17.230Z,83.40
2023-02-22T23:33:48.054Z,83.92
2023-02-22T23:36:15.900Z,83.91
2023-02-22T23:38:42.741Z,84.20
2023-02-22T23:41:11.816Z,84.31
2023-02-22T23:43:42.803Z,83.48
2023-02-22T23:46:18.240Z,83.70
2023-02-22T23:48:50.698Z,83.82
2023-02-22T23:51:20.294Z,83.58
2023-02-22T23:53:48.664Z,83.71
2023-02-22T23:56:20.814Z,83.68
2023-02-22T23:58:50.097Z,83.65
